Layla Renee — WDF2696 — position and weather

sailwx.info

Track history (hours):
 
Tides and Currents Weather Stations Pressure Air Temp Water Temp Dewpoint Dewpoint Depression Visibility Wind Speed Wind Dir Waves Ship Positions

Layla Renee

Owner: Marquette Transportation Company Offshore LLC, Jefferson, LA. More information available from US FCC via Universal Licensing System and Coast Guard Vessel Documentation Center.

Last reported at 2018-Jun-13 18:11 UTC. Time now 2018-Jun-19 16:21 UTC.
Position N 32°45' W 079°53'.

Length 22 m; draft 2.6 m.

Type: Towing. MMSI: 367430840.

Date/timePositionNaut miles runAvg speedWind from/ knotsBaromVisibWave heightAir tempDewpointWater temp
2018-Jun-13 18:11N 32°45' W 079°53'1 3.2
2018-Jun-13 18:00N 32°45' W 079°54'0 0.3
2018-Jun-13 17:30N 32°45' W 079°54'4 7.4
2018-Jun-13 17:00N 32°49' W 079°56'1 0.3
2018-Jun-13 13:33N 32°50' W 079°56'0 6.4
2018-Jun-13 13:30N 32°50' W 079°56'3 6.7
2018-Jun-13 13:00N 32°46' W 079°55'2 3.2
2018-Jun-13 12:30N 32°45' W 079°54'0 0.0
2018-Jun-13 07:07N 32°45' W 079°54'0 0.3
2018-Jun-13 06:59N 32°45' W 079°54'0 0.7
2018-Jun-13 06:29N 32°46' W 079°53'1 2.4
2018-Jun-13 05:54N 32°45' W 079°52'1 0.0
2018-Jun-12 13:43N 32°45' W 079°53'1 4.0
2018-Jun-12 13:30N 32°45' W 079°54'0 0.2
2018-Jun-12 13:00N 32°45' W 079°54'0 0.0
2018-Jun-12 12:30N 32°45' W 079°54'0 0.0
2018-Jun-12 12:00N 32°45' W 079°54'0 0.0
2018-Jun-12 11:30N 32°45' W 079°54'0 0.0
2018-Jun-12 10:56N 32°45' W 079°54'0 0.0
2018-Jun-12 10:26N 32°45' W 079°54'0 0.0
2018-Jun-12 09:59N 32°45' W 079°54'0 0.0
2018-Jun-12 09:30N 32°45' W 079°54'0 0.0
2018-Jun-12 08:59N 32°45' W 079°54'0 0.0
2018-Jun-12 08:30N 32°45' W 079°54'0 0.0
2018-Jun-12 07:56N 32°45' W 079°54'0 0.0
2018-Jun-12 07:15N 32°45' W 079°54'0 0.0
2018-Jun-12 07:00N 32°45' W 079°54'0 0.0
2018-Jun-12 06:30N 32°45' W 079°54'0 0.0
2018-Jun-12 06:00N 32°45' W 079°54'0 0.0
2018-Jun-12 05:30N 32°45' W 079°54'0 0.0
2018-Jun-12 05:00N 32°45' W 079°54'0 0.0
2018-Jun-12 04:30N 32°45' W 079°54'0 0.0
2018-Jun-12 03:51N 32°45' W 079°54'0 0.0
2018-Jun-12 03:30N 32°45' W 079°54'0 0.0
2018-Jun-12 03:00N 32°45' W 079°54'0 0.0
2018-Jun-12 02:03N 32°45' W 079°54'0 4.0
2018-Jun-12 02:00N 32°46' W 079°54'5 1.3
2018-Jun-11 22:22N 32°50' W 079°56'3 7.4
2018-Jun-11 22:00N 32°47' W 079°55'2 4.3
2018-Jun-11 21:27N 32°45' W 079°54'  
2018-Jun-09 05:31N 32°46' W 079°52'0 5.9
2018-Jun-09 05:29N 32°46' W 079°52'3 6.2
2018-Jun-09 05:00N 32°48' W 079°55'2 4.5
2018-Jun-09 04:27N 32°50' W 079°57'0 0.0
2018-Jun-09 04:00N 32°50' W 079°57'0 0.0
2018-Jun-09 03:18N 32°50' W 079°57'0 0.0
2018-Jun-09 02:55N 32°50' W 079°57'0 0.0
2018-Jun-09 02:29N 32°50' W 079°57'0 0.0
2018-Jun-09 02:00N 32°50' W 079°57'0 0.0
2018-Jun-09 01:29N 32°50' W 079°57'0 0.0
2018-Jun-09 01:00N 32°50' W 079°57'0 0.0
2018-Jun-09 00:26N 32°50' W 079°57'0 0.0
2018-Jun-09 00:00N 32°50' W 079°57'0 0.0
2018-Jun-08 23:30N 32°50' W 079°57'0 0.0
2018-Jun-08 23:00N 32°50' W 079°57'0 0.0
2018-Jun-08 22:30N 32°50' W 079°57'0 0.0
2018-Jun-08 22:01N 32°50' W 079°57'0 0.0
2018-Jun-08 21:30N 32°50' W 079°57'0 0.0
2018-Jun-08 21:00N 32°50' W 079°57'0 0.0
2018-Jun-08 20:30N 32°50' W 079°57'0 0.0
2018-Jun-08 18:13N 32°50' W 079°57'0 0.1
2018-Jun-08 18:00N 32°50' W 079°57'0 0.0
2018-Jun-08 17:31N 32°50' W 079°57'2 3.5
2018-Jun-08 17:00N 32°49' W 079°55'  
Track history (hours):
 
Tides and Currents Weather Stations Pressure Air Temp Water Temp Dewpoint Dewpoint Depression Visibility Wind Speed Wind Dir Waves Ship Positions

Layla Renee

Owner: Marquette Transportation Company Offshore LLC, Jefferson, LA. More information available from US FCC via Universal Licensing System and Coast Guard Vessel Documentation Center.

Last reported at 2018-Jun-13 18:11 UTC. Time now 2018-Jun-19 16:21 UTC.
Position N 32°45' W 079°53'.

Length 22 m; draft 2.6 m.

Type: Towing. MMSI: 367430840.

Date/timePositionNaut miles runAvg speedWind from/ knotsBaromVisibWave heightAir tempDewpointWater temp
2018-Jun-13 18:11N 32°45' W 079°53'1 3.2
2018-Jun-13 18:00N 32°45' W 079°54'0 0.3
2018-Jun-13 17:30N 32°45' W 079°54'4 7.4
2018-Jun-13 17:00N 32°49' W 079°56'1 0.3
2018-Jun-13 13:33N 32°50' W 079°56'0 6.4
2018-Jun-13 13:30N 32°50' W 079°56'3 6.7
2018-Jun-13 13:00N 32°46' W 079°55'2 3.2
2018-Jun-13 12:30N 32°45' W 079°54'0 0.0
2018-Jun-13 07:07N 32°45' W 079°54'0 0.3
2018-Jun-13 06:59N 32°45' W 079°54'0 0.7
2018-Jun-13 06:29N 32°46' W 079°53'1 2.4
2018-Jun-13 05:54N 32°45' W 079°52'1 0.0
2018-Jun-12 13:43N 32°45' W 079°53'1 4.0
2018-Jun-12 13:30N 32°45' W 079°54'0 0.2
2018-Jun-12 13:00N 32°45' W 079°54'0 0.0
2018-Jun-12 12:30N 32°45' W 079°54'0 0.0
2018-Jun-12 12:00N 32°45' W 079°54'0 0.0
2018-Jun-12 11:30N 32°45' W 079°54'0 0.0
2018-Jun-12 10:56N 32°45' W 079°54'0 0.0
2018-Jun-12 10:26N 32°45' W 079°54'0 0.0
2018-Jun-12 09:59N 32°45' W 079°54'0 0.0
2018-Jun-12 09:30N 32°45' W 079°54'0 0.0
2018-Jun-12 08:59N 32°45' W 079°54'0 0.0
2018-Jun-12 08:30N 32°45' W 079°54'0 0.0
2018-Jun-12 07:56N 32°45' W 079°54'0 0.0
2018-Jun-12 07:15N 32°45' W 079°54'0 0.0
2018-Jun-12 07:00N 32°45' W 079°54'0 0.0
2018-Jun-12 06:30N 32°45' W 079°54'0 0.0
2018-Jun-12 06:00N 32°45' W 079°54'0 0.0
2018-Jun-12 05:30N 32°45' W 079°54'0 0.0
2018-Jun-12 05:00N 32°45' W 079°54'0 0.0
2018-Jun-12 04:30N 32°45' W 079°54'0 0.0
2018-Jun-12 03:51N 32°45' W 079°54'0 0.0
2018-Jun-12 03:30N 32°45' W 079°54'0 0.0
2018-Jun-12 03:00N 32°45' W 079°54'0 0.0
2018-Jun-12 02:03N 32°45' W 079°54'0 4.0
2018-Jun-12 02:00N 32°46' W 079°54'5 1.3
2018-Jun-11 22:22N 32°50' W 079°56'3 7.4
2018-Jun-11 22:00N 32°47' W 079°55'2 4.3
2018-Jun-11 21:27N 32°45' W 079°54'  
2018-Jun-09 05:31N 32°46' W 079°52'0 5.9
2018-Jun-09 05:29N 32°46' W 079°52'3 6.2
2018-Jun-09 05:00N 32°48' W 079°55'2 4.5
2018-Jun-09 04:27N 32°50' W 079°57'0 0.0
2018-Jun-09 04:00N 32°50' W 079°57'0 0.0
2018-Jun-09 03:18N 32°50' W 079°57'0 0.0
2018-Jun-09 02:55N 32°50' W 079°57'0 0.0
2018-Jun-09 02:29N 32°50' W 079°57'0 0.0
2018-Jun-09 02:00N 32°50' W 079°57'0 0.0
2018-Jun-09 01:29N 32°50' W 079°57'0 0.0
2018-Jun-09 01:00N 32°50' W 079°57'0 0.0
2018-Jun-09 00:26N 32°50' W 079°57'0 0.0
2018-Jun-09 00:00N 32°50' W 079°57'0 0.0
2018-Jun-08 23:30N 32°50' W 079°57'0 0.0
2018-Jun-08 23:00N 32°50' W 079°57'0 0.0
2018-Jun-08 22:30N 32°50' W 079°57'0 0.0
2018-Jun-08 22:01N 32°50' W 079°57'0 0.0
2018-Jun-08 21:30N 32°50' W 079°57'0 0.0
2018-Jun-08 21:00N 32°50' W 079°57'0 0.0
2018-Jun-08 20:30N 32°50' W 079°57'0 0.0
2018-Jun-08 18:13N 32°50' W 079°57'0 0.1
2018-Jun-08 18:00N 32°50' W 079°57'0 0.0
2018-Jun-08 17:31N 32°50' W 079°57'2 3.5
2018-Jun-08 17:00N 32°49' W 079°55'  

Dump ship's entire track history